sensor_id;sensor_type;location;lat;lon;timestamp;pressure;altitude;pressure_sealevel;temperature;humidity
28310;BME280;15571;50.974;13.936;2023-01-26T00:02:40;100848.38;;;1.84;100.00
28310;BME280;15571;50.974;13.936;2023-01-26T00:05:45;100843.97;;;1.81;100.00
28310;BME280;15571;50.974;13.936;2023-01-26T00:08:47;100839.75;;;1.83;100.00
28310;BME280;15571;50.974;13.936;2023-01-26T00:11:50;100840.75;;;1.87;100.00
28310;BME280;15571;50.974;13.936;2023-01-26T00:14:52;100837.34;;;1.88;100.00
28310;BME280;15571;50.974;13.936;2023-01-26T00:17:55;100832.91;;;1.84;100.00
28310;BME280;15571;50.974;13.936;2023-01-26T00:20:58;100828.69;;;1.86;100.00
28310;BME280;15571;50.974;13.936;2023-01-26T00:24:00;100827.97;;;1.90;100.00
28310;BME280;15571;50.974;13.936;2023-01-26T00:27:04;100814.25;;;1.91;100.00
28310;BME280;15571;50.974;13.936;2023-01-26T00:30:07;100817.78;;;1.93;100.00
28310;BME280;15571;50.974;13.936;2023-01-26T00:33:10;100816.94;;;1.94;100.00
28310;BME280;15571;50.974;13.936;2023-01-26T00:36:12;100810.19;;;1.98;100.00
28310;BME280;15571;50.974;13.936;2023-01-26T00:39:14;100816.88;;;1.93;100.00
28310;BME280;15571;50.974;13.936;2023-01-26T00:42:16;100817.63;;;1.90;100.00
28310;BME280;15571;50.974;13.936;2023-01-26T00:45:18;100817.63;;;1.90;100.00
28310;BME280;15571;50.974;13.936;2023-01-26T00:48:22;100815.06;;;1.90;100.00
28310;BME280;15571;50.974;13.936;2023-01-26T00:51:24;100814.91;;;1.87;100.00
28310;BME280;15571;50.974;13.936;2023-01-26T00:54:26;100812.34;;;1.87;100.00
28310;BME280;15571;50.974;13.936;2023-01-26T00:57:28;100818.34;;;1.86;100.00
28310;BME280;15571;50.974;13.936;2023-01-26T01:00:30;100814.09;;;1.88;100.00
28310;BME280;15571;50.974;13.936;2023-01-26T01:03:34;100818.44;;;1.89;100.00
28310;BME280;15571;50.974;13.936;2023-01-26T01:06:38;100814.09;;;1.88;100.00
28310;BME280;15571;50.974;13.936;2023-01-26T01:09:44;100813.19;;;1.86;100.00
28310;BME280;15571;50.974;13.936;2023-01-26T01:12:46;100817.47;;;1.85;100.00
28310;BME280;15571;50.974;13.936;2023-01-26T01:15:48;100806.25;;;1.85;100.00
28310;BME280;15571;50.974;13.936;2023-01-26T01:18:52;100811.44;;;1.85;100.00
28310;BME280;15571;50.974;13.936;2023-01-26T01:21:55;100807.19;;;1.87;100.00
28310;BME280;15571;50.974;13.936;2023-01-26T01:24:57;100809.88;;;1.90;100.00
28310;BME280;15571;50.974;13.936;2023-01-26T01:28:04;100802.28;;;1.93;100.00
28310;BME280;15571;50.974;13.936;2023-01-26T01:31:07;100801.38;;;1.93;100.00
28310;BME280;15571;50.974;13.936;2023-01-26T01:34:11;100798.97;;;1.97;100.00
28310;BME280;15571;50.974;13.936;2023-01-26T01:37:14;100791.19;;;1.96;100.00
28310;BME280;15571;50.974;13.936;2023-01-26T01:40:16;100791.03;;;1.93;100.00
28310;BME280;15571;50.974;13.936;2023-01-26T01:43:18;100798.53;;;1.85;100.00
28310;BME280;15571;50.974;13.936;2023-01-26T01:46:23;100787.94;;;1.79;100.00
28310;BME280;15571;50.974;13.936;2023-01-26T01:49:35;100782.66;;;1.76;100.00
28310;BME280;15571;50.974;13.936;2023-01-26T01:52:40;100775.84;;;1.78;100.00
28310;BME280;15571;50.974;13.936;2023-01-26T01:55:43;100772.44;;;1.79;100.00
28310;BME280;15571;50.974;13.936;2023-01-26T01:58:46;100765.66;;;1.81;100.00
28310;BME280;15571;50.974;13.936;2023-01-26T02:01:50;100765.78;;;1.84;100.00
28310;BME280;15571;50.974;13.936;2023-01-26T02:05:01;100759.84;;;1.86;100.00
28310;BME280;15571;50.974;13.936;2023-01-26T02:08:07;100760.06;;;1.93;100.00
28310;BME280;15571;50.974;13.936;2023-01-26T02:11:14;100761.91;;;1.95;100.00
28310;BME280;15571;50.974;13.936;2023-01-26T02:14:22;100751.69;;;1.98;100.00
28310;BME280;15571;50.974;13.936;2023-01-26T02:17:25;100749.22;;;2.01;100.00
28310;BME280;15571;50.974;13.936;2023-01-26T02:20:31;100741.53;;;2.03;100.00
28310;BME280;15571;50.974;13.936;2023-01-26T02:23:39;100733.03;;;2.06;100.00
28310;BME280;15571;50.974;13.936;2023-01-26T02:26:49;100740.88;;;2.09;100.00
28310;BME280;15571;50.974;13.936;2023-01-26T02:29:51;100727.19;;;2.11;100.00
28310;BME280;15571;50.974;13.936;2023-01-26T02:32:53;100714.28;;;2.11;100.00
28310;BME280;15571;50.974;13.936;2023-01-26T02:35:58;100713.41;;;2.11;100.00
28310;BME280;15571;50.974;13.936;2023-01-26T02:39:13;100716.94;;;2.13;100.00
28310;BME280;15571;50.974;13.936;2023-01-26T02:42:20;100708.38;;;2.14;100.00
28310;BME280;15571;50.974;13.936;2023-01-26T02:45:44;100703.19;;;2.14;100.00
28310;BME280;15571;50.974;13.936;2023-01-26T02:48:53;100704.84;;;2.12;100.00
28310;BME280;15571;50.974;13.936;2023-01-26T02:52:12;100703.94;;;2.11;100.00
28310;BME280;15571;50.974;13.936;2023-01-26T02:55:16;100697.09;;;2.12;100.00
28310;BME280;15571;50.974;13.936;2023-01-26T02:58:37;100684.19;;;2.12;100.00
28310;BME280;15571;50.974;13.936;2023-01-26T03:01:40;100690.22;;;2.12;100.00
28310;BME280;15571;50.974;13.936;2023-01-26T03:04:42;100696.31;;;2.14;100.00
28310;BME280;15571;50.974;13.936;2023-01-26T03:07:45;100688.59;;;2.16;100.00
28310;BME280;15571;50.974;13.936;2023-01-26T03:10:48;100691.19;;;2.16;100.00
28310;BME280;15571;50.974;13.936;2023-01-26T03:13:52;100684.34;;;2.16;100.00
28310;BME280;15571;50.974;13.936;2023-01-26T03:16:54;100689.47;;;2.15;100.00
28310;BME280;15571;50.974;13.936;2023-01-26T03:19:56;100691.19;;;2.16;100.00
28310;BME280;15571;50.974;13.936;2023-01-26T03:23:18;100682.63;;;2.17;100.00
28310;BME280;15571;50.974;13.936;2023-01-26T03:26:37;100692.94;;;2.17;100.00
28310;BME280;15571;50.974;13.936;2023-01-26T03:29:59;100683.53;;;2.17;100.00
28310;BME280;15571;50.974;13.936;2023-01-26T03:33:01;100670.59;;;2.17;100.00
28310;BME280;15571;50.974;13.936;2023-01-26T03:36:07;100668.03;;;2.17;100.00
28310;BME280;15571;50.974;13.936;2023-01-26T03:39:09;100673.19;;;2.17;100.00
28310;BME280;15571;50.974;13.936;2023-01-26T03:42:31;100661.09;;;2.16;100.00
28310;BME280;15571;50.974;13.936;2023-01-26T03:45:52;100652.44;;;2.16;100.00
28310;BME280;15571;50.974;13.936;2023-01-26T03:49:12;100650.81;;;2.18;100.00
28310;BME280;15571;50.974;13.936;2023-01-26T03:52:31;100662.84;;;2.17;100.00
28310;BME280;15571;50.974;13.936;2023-01-26T03:55:51;100646.47;;;2.17;100.00
28310;BME280;15571;50.974;13.936;2023-01-26T03:59:10;100648.22;;;2.18;100.00
28310;BME280;15571;50.974;13.936;2023-01-26T04:02:17;100648.22;;;2.18;100.00
28310;BME280;15571;50.974;13.936;2023-01-26T04:05:38;100655.97;;;2.18;100.00
28310;BME280;15571;50.974;13.936;2023-01-26T04:08:58;100644.69;;;2.16;100.00
28310;BME280;15571;50.974;13.936;2023-01-26T04:12:00;100651.53;;;2.14;100.00
28310;BME280;15571;50.974;13.936;2023-01-26T04:15:03;100644.63;;;2.13;100.00
28310;BME280;15571;50.974;13.936;2023-01-26T04:18:24;100646.38;;;2.14;100.00
28310;BME280;15571;50.974;13.936;2023-01-26T04:21:44;100640.28;;;2.12;100.00
28310;BME280;15571;50.974;13.936;2023-01-26T04:24:51;100644.34;;;2.05;100.00
28310;BME280;15571;50.974;13.936;2023-01-26T04:27:53;100644.28;;;2.04;100.00
28310;BME280;15571;50.974;13.936;2023-01-26T04:30:55;100637.28;;;2.01;100.00
28310;BME280;15571;50.974;13.936;2023-01-26T04:33:59;100639.00;;;2.00;100.00
28310;BME280;15571;50.974;13.936;2023-01-26T04:37:02;100627.03;;;2.02;100.00
28310;BME280;15571;50.974;13.936;2023-01-26T04:40:17;100627.16;;;2.06;100.00
28310;BME280;15571;50.974;13.936;2023-01-26T04:43:21;100633.28;;;2.09;100.00
28310;BME280;15571;50.974;13.936;2023-01-26T04:46:25;100629.91;;;2.10;100.00
28310;BME280;15571;50.974;13.936;2023-01-26T04:49:29;100626.38;;;2.08;100.00
28310;BME280;15571;50.974;13.936;2023-01-26T04:52:31;100627.25;;;2.09;100.00
28310;BME280;15571;50.974;13.936;2023-01-26T04:55:33;100622.97;;;2.09;100.00
28310;BME280;15571;50.974;13.936;2023-01-26T04:58:35;100615.91;;;2.05;100.00
28310;BME280;15571;50.974;13.936;2023-01-26T05:01:37;100621.09;;;2.05;100.00
28310;BME280;15571;50.974;13.936;2023-01-26T05:04:42;100620.22;;;2.05;100.00
28310;BME280;15571;50.974;13.936;2023-01-26T05:07:45;100615.16;;;2.08;100.00
28310;BME280;15571;50.974;13.936;2023-01-26T05:10:50;100622.06;;;2.09;100.00
28310;BME280;15571;50.974;13.936;2023-01-26T05:14:13;100614.31;;;2.09;100.00
28310;BME280;15571;50.974;13.936;2023-01-26T05:17:36;100625.47;;;2.08;100.00
28310;BME280;15571;50.974;13.936;2023-01-26T05:21:11;100622.66;;;2.00;100.00
28310;BME280;15571;50.974;13.936;2023-01-26T05:24:18;100625.94;;;1.96;100.00
28310;BME280;15571;50.974;13.936;2023-01-26T05:27:29;100623.31;;;1.94;100.00
28310;BME280;15571;50.974;13.936;2023-01-26T05:30:33;100630.22;;;1.95;100.00
28310;BME280;15571;50.974;13.936;2023-01-26T05:33:36;100628.56;;;1.97;100.00
28310;BME280;15571;50.974;13.936;2023-01-26T05:36:42;100630.31;;;1.98;100.00
28310;BME280;15571;50.974;13.936;2023-01-26T05:39:47;100639.88;;;2.01;100.00
28310;BME280;15571;50.974;13.936;2023-01-26T05:42:53;100636.53;;;2.04;100.00
28310;BME280;15571;50.974;13.936;2023-01-26T05:46:13;100628.78;;;2.04;100.00
28310;BME280;15571;50.974;13.936;2023-01-26T05:49:17;100625.38;;;2.05;100.00
28310;BME280;15571;50.974;13.936;2023-01-26T05:52:21;100627.16;;;2.06;100.00
28310;BME280;15571;50.974;13.936;2023-01-26T05:55:24;100635.81;;;2.08;100.00
28310;BME280;15571;50.974;13.936;2023-01-26T05:58:27;100629.78;;;2.07;100.00
28310;BME280;15571;50.974;13.936;2023-01-26T06:01:29;100637.56;;;2.09;100.00
28310;BME280;15571;50.974;13.936;2023-01-26T06:04:35;100634.16;;;2.10;100.00
28310;BME280;15571;50.974;13.936;2023-01-26T06:07:42;100632.47;;;2.10;100.00
28310;BME280;15571;50.974;13.936;2023-01-26T06:10:57;100629.00;;;2.10;100.00
28310;BME280;15571;50.974;13.936;2023-01-26T06:14:18;100634.22;;;2.11;100.00
28310;BME280;15571;50.974;13.936;2023-01-26T06:17:21;100629.94;;;2.12;100.00
28310;BME280;15571;50.974;13.936;2023-01-26T06:20:32;100627.34;;;2.12;100.00
28310;BME280;15571;50.974;13.936;2023-01-26T06:23:40;100628.28;;;2.14;100.00
28310;BME280;15571;50.974;13.936;2023-01-26T06:26:42;100628.34;;;2.15;100.00
28310;BME280;15571;50.974;13.936;2023-01-26T06:29:44;100632.63;;;2.15;100.00
28310;BME280;15571;50.974;13.936;2023-01-26T06:32:46;100636.94;;;2.16;100.00
28310;BME280;15571;50.974;13.936;2023-01-26T06:35:48;100636.03;;;2.14;100.00
28310;BME280;15571;50.974;13.936;2023-01-26T06:38:52;100642.06;;;2.14;100.00
28310;BME280;15571;50.974;13.936;2023-01-26T06:41:56;100639.53;;;2.16;100.00
28310;BME280;15571;50.974;13.936;2023-01-26T06:45:00;100640.44;;;2.16;100.00
28310;BME280;15571;50.974;13.936;2023-01-26T06:48:02;100640.47;;;2.18;100.00
28310;BME280;15571;50.974;13.936;2023-01-26T06:51:27;100641.28;;;2.17;100.00
28310;BME280;15571;50.974;13.936;2023-01-26T06:54:39;100634.38;;;2.16;100.00
28310;BME280;15571;50.974;13.936;2023-01-26T06:57:54;100625.81;;;2.17;100.00
28310;BME280;15571;50.974;13.936;2023-01-26T07:01:25;100629.13;;;2.13;100.00
28310;BME280;15571;50.974;13.936;2023-01-26T07:04:27;100624.78;;;2.12;100.00
28310;BME280;15571;50.974;13.936;2023-01-26T07:07:31;100629.72;;;2.06;100.00
28310;BME280;15571;50.974;13.936;2023-01-26T07:10:37;100623.63;;;2.04;100.00
28310;BME280;15571;50.974;13.936;2023-01-26T07:13:39;100621.97;;;2.06;100.00
28310;BME280;15571;50.974;13.936;2023-01-26T07:16:41;100615.16;;;2.08;100.00
28310;BME280;15571;50.974;13.936;2023-01-26T07:19:43;100625.59;;;2.11;100.00
28310;BME280;15571;50.974;13.936;2023-01-26T07:22:45;100637.69;;;2.12;100.00
28310;BME280;15571;50.974;13.936;2023-01-26T07:25:48;100625.47;;;2.08;100.00
28310;BME280;15571;50.974;13.936;2023-01-26T07:28:50;100611.66;;;2.06;100.00
28310;BME280;15571;50.974;13.936;2023-01-26T07:31:52;100626.22;;;2.04;100.00
28310;BME280;15571;50.974;13.936;2023-01-26T07:34:57;100633.88;;;2.02;100.00
28310;BME280;15571;50.974;13.936;2023-01-26T07:38:05;100624.94;;;1.92;100.00
28310;BME280;15571;50.974;13.936;2023-01-26T07:41:10;100629.22;;;1.92;100.00
28310;BME280;15571;50.974;13.936;2023-01-26T07:44:12;100627.53;;;1.92;100.00
28310;BME280;15571;50.974;13.936;2023-01-26T07:47:14;100622.84;;;1.82;100.00
28310;BME280;15571;50.974;13.936;2023-01-26T07:50:16;100630.59;;;1.82;100.00
28310;BME280;15571;50.974;13.936;2023-01-26T07:53:20;100616.03;;;1.84;100.00
28310;BME280;15571;50.974;13.936;2023-01-26T07:56:24;100623.06;;;1.88;100.00
28310;BME280;15571;50.974;13.936;2023-01-26T07:59:27;100634.31;;;1.90;100.00
28310;BME280;15571;50.974;13.936;2023-01-26T08:02:29;100632.72;;;1.94;100.00
28310;BME280;15571;50.974;13.936;2023-01-26T08:05:31;100627.69;;;1.97;100.00
28310;BME280;15571;50.974;13.936;2023-01-26T08:08:34;100630.31;;;1.98;100.00
28310;BME280;15571;50.974;13.936;2023-01-26T08:11:39;100621.63;;;1.96;100.00
28310;BME280;15571;50.974;13.936;2023-01-26T08:14:41;100628.50;;;1.96;100.00
28310;BME280;15571;50.974;13.936;2023-01-26T08:17:43;100629.22;;;1.92;100.00
28310;BME280;15571;50.974;13.936;2023-01-26T08:20:49;100618.00;;;1.91;100.00
28310;BME280;15571;50.974;13.936;2023-01-26T08:23:51;100630.09;;;1.92;100.00
28310;BME280;15571;50.974;13.936;2023-01-26T08:26:54;100621.53;;;1.93;100.00
28310;BME280;15571;50.974;13.936;2023-01-26T08:29:57;100619.91;;;1.95;100.00
28310;BME280;15571;50.974;13.936;2023-01-26T08:32:59;100618.88;;;1.92;100.00
28310;BME280;15571;50.974;13.936;2023-01-26T08:36:04;100622.91;;;1.83;100.00
28310;BME280;15571;50.974;13.936;2023-01-26T08:39:06;100614.22;;;1.81;100.00
28310;BME280;15571;50.974;13.936;2023-01-26T08:45:33;100624.19;;;1.72;100.00
28310;BME280;15571;50.974;13.936;2023-01-26T08:48:35;100622.38;;;1.69;100.00
28310;BME280;15571;50.974;13.936;2023-01-26T08:51:38;100625.91;;;1.71;100.00
28310;BME280;15571;50.974;13.936;2023-01-26T08:54:39;100623.44;;;1.75;100.00
28310;BME280;15571;50.974;13.936;2023-01-26T08:57:41;100620.91;;;1.76;100.00
28310;BME280;15571;50.974;13.936;2023-01-26T09:00:45;100616.75;;;1.80;100.00
28310;BME280;15571;50.974;13.936;2023-01-26T09:03:48;100625.47;;;1.83;100.00
28310;BME280;15571;50.974;13.936;2023-01-26T09:06:50;100627.22;;;1.84;100.00
28310;BME280;15571;50.974;13.936;2023-01-26T09:09:52;100624.72;;;1.86;100.00
28310;BME280;15571;50.974;13.936;2023-01-26T09:12:55;100633.38;;;1.88;100.00
28310;BME280;15571;50.974;13.936;2023-01-26T09:16:01;100626.63;;;1.92;100.00
28310;BME280;15571;50.974;13.936;2023-01-26T09:19:03;100630.22;;;1.95;100.00
28310;BME280;15571;50.974;13.936;2023-01-26T09:22:08;100632.91;;;1.98;100.00
28310;BME280;15571;50.974;13.936;2023-01-26T09:25:10;100626.91;;;1.99;100.00
28310;BME280;15571;50.974;13.936;2023-01-26T09:28:12;100637.38;;;2.02;100.00
28310;BME280;15571;50.974;13.936;2023-01-26T09:31:17;100631.41;;;2.05;100.00
28310;BME280;15571;50.974;13.936;2023-01-26T09:34:19;100639.13;;;2.04;100.00
28310;BME280;15571;50.974;13.936;2023-01-26T09:37:20;100642.53;;;2.02;100.00
28310;BME280;15571;50.974;13.936;2023-01-26T09:40:24;100644.94;;;1.98;100.00
28310;BME280;15571;50.974;13.936;2023-01-26T09:43:35;100643.97;;;1.94;100.00
28310;BME280;15571;50.974;13.936;2023-01-26T09:46:43;100640.66;;;1.98;100.00
28310;BME280;15571;50.974;13.936;2023-01-26T09:49:47;100642.53;;;2.02;100.00
28310;BME280;15571;50.974;13.936;2023-01-26T09:52:53;100640.88;;;2.05;100.00
28310;BME280;15571;50.974;13.936;2023-01-26T09:55:58;100637.47;;;2.06;100.00
28310;BME280;15571;50.974;13.936;2023-01-26T09:59:05;100643.50;;;2.06;100.00
28310;BME280;15571;50.974;13.936;2023-01-26T10:02:19;100644.34;;;2.05;100.00
28310;BME280;15571;50.974;13.936;2023-01-26T10:05:25;100638.78;;;1.94;100.00
28310;BME280;15571;50.974;13.936;2023-01-26T10:08:35;100637.56;;;1.84;100.00
28310;BME280;15571;50.974;13.936;2023-01-26T10:11:37;100634.53;;;1.72;100.00
28310;BME280;15571;50.974;13.936;2023-01-26T10:14:42;100639.75;;;1.74;100.00
28310;BME280;15571;50.974;13.936;2023-01-26T10:17:47;100638.00;;;1.73;100.00
28310;BME280;15571;50.974;13.936;2023-01-26T10:20:52;100630.94;;;1.68;100.00
28310;BME280;15571;50.974;13.936;2023-01-26T10:24:01;100630.94;;;1.68;100.00
28310;BME280;15571;50.974;13.936;2023-01-26T10:27:08;100633.66;;;1.71;100.00
28310;BME280;15571;50.974;13.936;2023-01-26T10:30:12;100630.31;;;1.74;100.00
28310;BME280;15571;50.974;13.936;2023-01-26T10:33:17;100635.53;;;1.76;100.00
28310;BME280;15571;50.974;13.936;2023-01-26T10:36:22;100626.09;;;1.76;100.00
28310;BME280;15571;50.974;13.936;2023-01-26T10:39:24;100632.97;;;1.76;100.00
28310;BME280;15571;50.974;13.936;2023-01-26T10:42:26;100632.09;;;1.77;100.00
28310;BME280;15571;50.974;13.936;2023-01-26T10:45:29;100617.00;;;1.63;100.00
28310;BME280;15571;50.974;13.936;2023-01-26T10:48:38;100615.03;;;1.56;100.00
28310;BME280;15571;50.974;13.936;2023-01-26T10:51:41;100614.19;;;1.57;100.00
28310;BME280;15571;50.974;13.936;2023-01-26T10:54:46;100614.34;;;1.62;100.00
28310;BME280;15571;50.974;13.936;2023-01-26T10:57:51;100609.97;;;1.59;100.00
28310;BME280;15571;50.974;13.936;2023-01-26T11:00:54;100614.34;;;1.62;100.00
28310;BME280;15571;50.974;13.936;2023-01-26T11:03:59;100610.13;;;1.64;100.00
28310;BME280;15571;50.974;13.936;2023-01-26T11:07:22;100600.75;;;1.66;100.00
28310;BME280;15571;50.974;13.936;2023-01-26T11:10:29;100599.16;;;1.69;100.00
28310;BME280;15571;50.974;13.936;2023-01-26T11:13:31;100607.69;;;1.67;100.00
28310;BME280;15571;50.974;13.936;2023-01-26T11:16:33;100613.88;;;1.72;100.00
28310;BME280;15571;50.974;13.936;2023-01-26T11:19:46;100618.94;;;1.69;100.00
28310;BME280;15571;50.974;13.936;2023-01-26T11:22:53;100606.56;;;1.60;100.00
28310;BME280;15571;50.974;13.936;2023-01-26T11:26:10;100608.44;;;1.64;100.00
28310;BME280;15571;50.974;13.936;2023-01-26T11:32:41;100590.97;;;1.57;100.00
28310;BME280;15571;50.974;13.936;2023-01-26T11:35:51;100597.97;;;1.60;100.00
28310;BME280;15571;50.974;13.936;2023-01-26T11:38:56;100597.19;;;1.62;100.00
28310;BME280;15571;50.974;13.936;2023-01-26T11:42:05;100584.16;;;1.59;100.00
28310;BME280;15571;50.974;13.936;2023-01-26T11:45:15;100579.78;;;1.57;100.00
28310;BME280;15571;50.974;13.936;2023-01-26T11:48:21;100576.91;;;1.49;100.00
28310;BME280;15571;50.974;13.936;2023-01-26T11:51:33;100578.66;;;1.50;100.00
28310;BME280;15571;50.974;13.936;2023-01-26T11:54:39;100563.31;;;1.53;100.00
28310;BME280;15571;50.974;13.936;2023-01-26T11:57:44;100564.28;;;1.57;100.00
28310;BME280;15571;50.974;13.936;2023-01-26T12:00:51;100555.72;;;1.58;100.00
28310;BME280;15571;50.974;13.936;2023-01-26T12:03:56;100563.50;;;1.59;100.00
28310;BME280;15571;50.974;13.936;2023-01-26T12:07:00;100551.59;;;1.63;100.00
28310;BME280;15571;50.974;13.936;2023-01-26T12:10:04;100550.91;;;1.67;100.00
28310;BME280;15571;50.974;13.936;2023-01-26T12:13:09;100554.50;;;1.72;100.00
28310;BME280;15571;50.974;13.936;2023-01-26T12:16:15;100541.75;;;1.77;100.00
28310;BME280;15571;50.974;13.936;2023-01-26T12:19:23;100547.94;;;1.80;100.00
28310;BME280;15571;50.974;13.936;2023-01-26T12:22:29;100536.72;;;1.80;100.00
28310;BME280;15571;50.974;13.936;2023-01-26T12:25:36;100532.47;;;1.80;100.00
28310;BME280;15571;50.974;13.936;2023-01-26T12:28:41;100535.84;;;1.79;100.00
28310;BME280;15571;50.974;13.936;2023-01-26T12:31:47;100536.72;;;1.80;100.00
28310;BME280;15571;50.974;13.936;2023-01-26T12:34:50;100529.72;;;1.76;100.00
28310;BME280;15571;50.974;13.936;2023-01-26T12:37:55;100531.44;;;1.77;100.00
28310;BME280;15571;50.974;13.936;2023-01-26T12:41:01;100529.72;;;1.76;100.00
28310;BME280;15571;50.974;13.936;2023-01-26T12:44:09;100527.13;;;1.76;100.00
28310;BME280;15571;50.974;13.936;2023-01-26T12:47:19;100535.75;;;1.76;100.00
28310;BME280;15571;50.974;13.936;2023-01-26T12:50:24;100527.84;;;1.71;100.00
28310;BME280;15571;50.974;13.936;2023-01-26T12:53:33;100531.03;;;1.64;100.00
28310;BME280;15571;50.974;13.936;2023-01-26T12:56:38;100520.78;;;1.67;100.00
28310;BME280;15571;50.974;13.936;2023-01-26T12:59:41;100518.28;;;1.69;100.00
28310;BME280;15571;50.974;13.936;2023-01-26T13:02:44;100514.09;;;1.73;100.00
28310;BME280;15571;50.974;13.936;2023-01-26T13:05:57;100505.44;;;1.70;100.00
28310;BME280;15571;50.974;13.936;2023-01-26T13:09:03;100505.44;;;1.70;100.00
28310;BME280;15571;50.974;13.936;2023-01-26T13:15:35;100494.31;;;1.73;100.00
28310;BME280;15571;50.974;13.936;2023-01-26T13:18:46;100488.31;;;1.73;100.00
28310;BME280;15571;50.974;13.936;2023-01-26T13:21:51;100491.84;;;1.76;100.00
28310;BME280;15571;50.974;13.936;2023-01-26T13:24:57;100491.81;;;1.75;100.00
28310;BME280;15571;50.974;13.936;2023-01-26T13:28:01;100503.78;;;1.73;100.00
28310;BME280;15571;50.974;13.936;2023-01-26T13:31:04;100494.97;;;1.67;100.00
28310;BME280;15571;50.974;13.936;2023-01-26T13:34:06;100492.16;;;1.60;100.00
28310;BME280;15571;50.974;13.936;2023-01-26T13:37:10;100496.22;;;1.53;100.00
28310;BME280;15571;50.974;13.936;2023-01-26T13:40:18;100495.44;;;1.55;100.00
28310;BME280;15571;50.974;13.936;2023-01-26T13:43:27;100498.06;;;1.57;100.00
28310;BME280;15571;50.974;13.936;2023-01-26T13:46:30;100499.94;;;1.61;100.00
28310;BME280;15571;50.974;13.936;2023-01-26T13:49:36;100501.59;;;1.59;100.00
28310;BME280;15571;50.974;13.936;2023-01-26T13:52:40;100507.47;;;1.55;100.00
28310;BME280;15571;50.974;13.936;2023-01-26T13:55:44;100509.13;;;1.53;100.00
28310;BME280;15571;50.974;13.936;2023-01-26T13:58:52;100509.00;;;1.50;100.00
28310;BME280;15571;50.974;13.936;2023-01-26T14:01:55;100500.31;;;1.48;100.00
28310;BME280;15571;50.974;13.936;2023-01-26T14:04:58;100506.34;;;1.47;100.00
28310;BME280;15571;50.974;13.936;2023-01-26T14:08:02;100508.19;;;1.51;100.00
28310;BME280;15571;50.974;13.936;2023-01-26T14:11:14;100503.13;;;1.54;100.00
28310;BME280;15571;50.974;13.936;2023-01-26T14:14:19;100499.66;;;1.53;100.00
28310;BME280;15571;50.974;13.936;2023-01-26T14:17:25;100499.50;;;1.49;100.00
28310;BME280;15571;50.974;13.936;2023-01-26T14:20:29;100502.19;;;1.52;100.00
28310;BME280;15571;50.974;13.936;2023-01-26T14:23:32;100503.06;;;1.52;100.00
28310;BME280;15571;50.974;13.936;2023-01-26T14:26:36;100498.63;;;1.48;100.00
28310;BME280;15571;50.974;13.936;2023-01-26T14:29:39;100503.69;;;1.45;100.00
28310;BME280;15571;50.974;13.936;2023-01-26T14:32:45;100500.28;;;1.46;100.00
28310;BME280;15571;50.974;13.936;2023-01-26T14:35:54;100504.63;;;1.47;100.00
28310;BME280;15571;50.974;13.936;2023-01-26T14:38:57;100500.88;;;1.39;100.00
28310;BME280;15571;50.974;13.936;2023-01-26T14:42:04;100506.53;;;1.29;100.00
28310;BME280;15571;50.974;13.936;2023-01-26T14:45:10;100510.22;;;1.13;100.00
28310;BME280;15571;50.974;13.936;2023-01-26T14:48:15;100503.44;;;1.15;100.00
28310;BME280;15571;50.974;13.936;2023-01-26T14:51:21;100510.44;;;1.19;100.00
28310;BME280;15571;50.974;13.936;2023-01-26T14:54:24;100510.34;;;1.16;100.00
28310;BME280;15571;50.974;13.936;2023-01-26T14:57:30;100512.78;;;1.11;100.00
28310;BME280;15571;50.974;13.936;2023-01-26T15:00:32;100512.66;;;1.08;100.00
28310;BME280;15571;50.974;13.936;2023-01-26T15:03:36;100512.78;;;1.11;100.00
28310;BME280;15571;50.974;13.936;2023-01-26T15:06:38;100517.94;;;1.11;100.00
28310;BME280;15571;50.974;13.936;2023-01-26T15:09:40;100518.00;;;1.14;100.00
28310;BME280;15571;50.974;13.936;2023-01-26T15:12:43;100513.69;;;1.13;100.00
28310;BME280;15571;50.974;13.936;2023-01-26T15:16:02;100523.19;;;1.14;100.00
28310;BME280;15571;50.974;13.936;2023-01-26T15:19:04;100513.97;;;1.21;100.00
28310;BME280;15571;50.974;13.936;2023-01-26T15:22:17;100525.94;;;1.19;100.00
28310;BME280;15571;50.974;13.936;2023-01-26T15:25:21;100527.59;;;1.17;100.00
28310;BME280;15571;50.974;13.936;2023-01-26T15:28:26;100526.31;;;1.05;100.00
28310;BME280;15571;50.974;13.936;2023-01-26T15:31:29;100528.00;;;1.05;100.00
28310;BME280;15571;50.974;13.936;2023-01-26T15:34:33;100528.88;;;1.05;100.00
28310;BME280;15571;50.974;13.936;2023-01-26T15:37:36;100536.53;;;1.04;100.00
28310;BME280;15571;50.974;13.936;2023-01-26T15:40:38;100527.13;;;1.04;100.00
28310;BME280;15571;50.974;13.936;2023-01-26T15:43:41;100527.25;;;1.07;100.00
28310;BME280;15571;50.974;13.936;2023-01-26T15:46:43;100528.97;;;1.08;100.00
28310;BME280;15571;50.974;13.936;2023-01-26T15:49:46;100530.66;;;1.06;100.00
28310;BME280;15571;50.974;13.936;2023-01-26T15:52:49;100535.81;;;1.06;100.00
28310;BME280;15571;50.974;13.936;2023-01-26T15:55:51;100534.03;;;1.05;100.00
28310;BME280;15571;50.974;13.936;2023-01-26T15:58:58;100538.38;;;1.06;100.00
28310;BME280;15571;50.974;13.936;2023-01-26T16:02:03;100538.94;;;0.99;100.00
28310;BME280;15571;50.974;13.936;2023-01-26T16:05:05;100532.09;;;1.00;100.00
28310;BME280;15571;50.974;13.936;2023-01-26T16:08:08;100535.31;;;0.94;100.00
28310;BME280;15571;50.974;13.936;2023-01-26T16:11:10;100534.59;;;0.98;100.00